Data for 09/27/2006

Time Sea-Level Adjusted Pressure Absolute Pressure Temperature Relative Humidity Dew Point   
(mb) (inHg) (mb) (inHg) (C) (F) (%) (C) (F)
00:05 1024 30.24 853 25.19 15.4 59.8 38 1.2 34.2
00:10 1024 30.24 853 25.19 15.1 59.3 39 1.5 34.7
00:15 1024 30.24 853 25.19 14.7 58.4 50 4.4 39.8
00:20 1024 30.24 853 25.19 14.6 58.3 41 1.4 34.6
00:25 1024 30.24 853 25.19 14.6 58.3 42 1.8 35.2
00:30 1024 30.24 853 25.19 14.5 58.1 42 1.8 35.3
00:35 1024 30.24 853 25.19 14.3 57.7 42 1.6 34.8
00:40 1024 30.24 853 25.19 14 57.3 48 3.2 37.8
00:45 1024 30.24 853 25.19 13.5 56.2 48 2.8 37
00:50 1024 30.24 853 25.19 12.9 55.2 48 2.3 36.1
00:55 1024 30.24 853 25.19 12.8 55 48 2.2 35.9
01:00 1024 30.24 853 25.19 12.9 55.2 48 2.2 35.9
01:05 1024 30.24 853 25.19 12.8 55 48 2.2 36
01:10 1024 30.24 853 25.19 12.6 54.7 49 2.3 36.2
01:15 1024 30.24 853 25.19 12.6 54.7 50 2.4 36.3
01:20 1024 30.24 853 25.19 12.7 54.9 50 2.5 36.5
01:25 1024 30.24 853 25.19 12.7 54.9 49 2.3 36.2
01:30 1024 30.24 853 25.19 12.8 55.1 47 1.7 35.1
01:35 1024 30.24 853 25.19 13.2 55.8 44 1.4 34.6
01:40 1024 30.24 853 25.19 14.1 57.4 43 1.7 35.1
01:45 1024 30.24 853 25.19 14.8 58.6 41 1.6 34.9
01:50 1024 30.24 853 25.19 15 59.1 42 2.2 35.9
01:55 1024 30.24 853 25.19 14.6 58.2 44 2.7 36.9
02:00 1024 30.24 853 25.19 13.9 57 46 2.6 36.6
02:05 1024 30.24 853 25.19 13.8 56.9 45 2.3 36.1
02:10 1024 30.24 853 25.19 13.8 56.8 46 2.4 36.3
02:15 1024 30.24 853 25.19 13.7 56.6 46 2.4 36.4
02:20 1024 30.24 853 25.19 13.4 56.2 47 2.3 36.1
02:25 1024 30.24 853 25.19 13.4 56.1 47 2.3 36.1
02:30 1024 30.24 853 25.19 13.3 56 48 2.7 36.8
02:35 1024 30.24 853 25.19 13.2 55.7 49 2.8 37.1
02:40 1024 30.24 853 25.19 13.1 55.6 49 2.8 37
02:45 1024 30.24 854 25.22 13.2 55.7 50 3.1 37.6
02:50 1024 30.24 854 25.22 13.1 55.6 50 3.2 37.7
02:55 1024 30.24 854 25.22 13.1 55.6 52 3.5 38.3
03:00 1024 30.24 854 25.22 13 55.4 54 3.9 39
03:05 1025 30.27 854 25.22 13 55.3 55 4.2 39.5
03:10 1025 30.27 854 25.22 13 55.3 56 4.5 40
03:15 1025 30.27 854 25.22 12.9 55.2 57 4.8 40.6
03:20 1025 30.27 854 25.22 12.9 55.3 59 5.2 41.3
03:25 1025 30.27 854 25.22 12.9 55.2 61 5.5 42
03:30 1025 30.27 854 25.22 12.6 54.7 63 5.8 42.4
03:35 1025 30.27 854 25.22 11.9 53.3 64 5.3 41.5
03:40 1025 30.27 854 25.22 11.5 52.7 64 5 41
03:45 1025 30.27 854 25.22 11.4 52.6 64 5 40.9
03:50 1025 30.27 854 25.22 11.6 52.9 64 5.1 41.2
03:55 1025 30.27 854 25.22 11.7 53 66 5.6 42.2
04:00 1025 30.27 854 25.22 11.6 53 67 5.7 42.3
04:05 1025 30.27 854 25.22 11.7 53 67 5.7 42.3
04:10 1025 30.27 854 25.22 11.8 53.2 67 5.9 42.5
04:15 1025 30.27 854 25.22 11.7 53 68 6 42.8
04:20 1025 30.27 854 25.22 11.6 52.8 67 5.7 42.3
04:25 1025 30.27 854 25.22 11.8 53.2 66 5.7 42.3
04:30 1025 30.27 854 25.22 11.9 53.4 66 5.9 42.6
04:35 1025 30.27 854 25.22 11.8 53.3 67 6 42.7
04:40 1025 30.27 854 25.22 11.6 53 67 5.8 42.5
04:45 1025 30.27 855 25.25 11.7 53.1 67 5.9 42.5
04:50 1025 30.27 855 25.25 11.9 53.4 66 5.8 42.4
04:55 1026 30.3 855 25.25 12 53.6 66 5.9 42.7
05:00 1026 30.3 855 25.25 12 53.5 66 5.9 42.6
05:05 1026 30.3 855 25.25 11.8 53.3 67 6.1 42.9
05:10 1026 30.3 855 25.25 11.6 52.8 69 6 42.9
05:15 1026 30.3 855 25.25 11.3 52.4 70 6 42.8
05:20 1026 30.3 855 25.25 11.4 52.4 71 6.3 43.4
05:25 1026 30.3 855 25.25 11.3 52.3 71 6.3 43.4
05:30 1026 30.3 855 25.25 11.1 52 72 6.4 43.5
05:35 1026 30.3 855 25.25 11.1 52.1 72 6.3 43.3
05:40 1026 30.3 855 25.25 11.2 52.2 71 6.2 43.2
05:45 1026 30.3 855 25.25 11.3 52.3 70 6.1 43
05:50 1026 30.3 855 25.25 11.3 52.3 70 6.1 43
05:55 1026 30.3 855 25.25 11.3 52.4 71 6.4 43.4
06:00 1026 30.3 855 25.25 11 51.7 72 6.1 43
06:05 1026 30.3 855 25.25 10.9 51.6 72 6.1 43
06:10 1026 30.3 855 25.25 11 51.9 70 5.9 42.6
06:15 1026 30.3 856 25.28 11.1 52 71 6 42.8
06:20 1026 30.3 856 25.28 11.1 52 71 6.1 42.9
06:25 1026 30.3 856 25.28 11 51.8 71 6 42.9
06:30 1026 30.3 856 25.28 10.8 51.4 72 5.9 42.6
06:35 1026 30.3 856 25.28 10.7 51.3 72 5.9 42.6
06:40 1027 30.33 856 25.28 10.7 51.2 72 5.9 42.6
06:45 1027 30.33 856 25.28 10.7 51.2 73 5.9 42.7
06:50 1027 30.33 856 25.28 10.4 50.8 73 5.9 42.6
06:55 1027 30.33 856 25.28 10.3 50.6 74 5.9 42.7
07:00 1027 30.33 856 25.28 10.3 50.5 73 5.8 42.4
07:05 1027 30.33 856 25.28 10.1 50.1 74 5.6 42.1
07:10 1027 30.33 856 25.28 9.9 49.8 73 5.4 41.7
07:15 1027 30.33 856 25.28 9.8 49.6 74 5.3 41.5
07:20 1027 30.33 856 25.28 9.7 49.5 73 5.1 41.3
07:25 1027 30.33 856 25.28 9.8 49.6 73 5.1 41.2
07:30 1027 30.33 856 25.28 9.7 49.5 73 5.1 41.3
07:35 1027 30.33 856 25.28 9.7 49.4 73 5.1 41.2
07:40 1027 30.33 856 25.28 9.7 49.4 73 5 41
07:45 1027 30.33 856 25.28 9.6 49.3 73 5 40.9
07:50 1027 30.33 856 25.28 9.6 49.3 73 5 41
07:55 1027 30.33 856 25.28 9.6 49.4 73 5 40.9
08:00 1027 30.33 857 25.31 9.6 49.3 73 5 41
08:05 1027 30.33 857 25.31 9.5 49.1 73 5 41
08:10 1027 30.33 857 25.31 9.5 49.1 73 4.9 40.8
08:15 1027 30.33 857 25.31 9.5 49 73 4.9 40.8
08:20 1027 30.33 857 25.31 9.5 49.1 73 5 41
08:25 1028 30.36 857 25.31 9.6 49.3 73 5.1 41.1
08:30 1028 30.36 857 25.31 9.6 49.3 73 5 41
08:35 1028 30.36 857 25.31 9.6 49.3 73 5.1 41.2
08:40 1028 30.36 857 25.31 9.6 49.3 73 5.1 41.1
08:45 1028 30.36 857 25.31 9.5 49.1 74 5.1 41.2
08:50 1028 30.36 857 25.31 9.5 49.1 74 5.2 41.3
08:55 1028 30.36 857 25.31 9.5 49 75 5.2 41.3
09:00 1028 30.36 857 25.31 9.5 49 74 5.1 41.2
09:05 1028 30.36 857 25.31 9.4 48.8 74 5 41.1
09:10 1028 30.36 857 25.31 9.4 48.8 75 5.1 41.2
09:15 1028 30.36 857 25.31 9.4 48.9 75 5.1 41.2
09:20 1028 30.36 857 25.31 9.3 48.8 74 5 41.1
09:25 1028 30.36 857 25.31 9.3 48.8 74 4.9 40.8
09:30 1028 30.36 857 25.31 9.4 48.8 74 5 40.9
09:35 1028 30.36 857 25.31 9.4 48.9 75 5.2 41.4
09:40 1028 30.36 857 25.31 9.4 49 75 5.2 41.3
09:45 1028 30.36 857 25.31 9.5 49 74 5 41.1
09:50 1028 30.36 857 25.31 9.3 48.8 75 5.1 41.1
09:55 1028 30.36 857 25.31 9.5 49 74 5.2 41.3
10:00 1028 30.36 857 25.31 9.4 48.9 74 4.9 40.9
10:05 1028 30.36 857 25.31 9.4 48.9 72 4.6 40.2
10:10 1028 30.36 858 25.34 9.3 48.8 73 4.7 40.4
10:15 1028 30.36 858 25.34 9.3 48.8 73 4.7 40.5
10:20 1028 30.36 858 25.34 9.4 48.8 72 4.5 40.2
10:25 1028 30.36 858 25.34 9.4 48.9 72 4.7 40.5
10:30 1028 30.36 858 25.34 9.4 48.8 73 4.7 40.5
10:35 1028 30.36 858 25.34 9.4 49 71 4.5 40.1
10:40 1028 30.36 858 25.34 9.4 48.9 71 4.5 40
10:45 1028 30.36 858 25.34 9.4 48.9 71 4.4 40
10:50 1028 30.36 858 25.34 9.5 49 71 4.5 40.1
10:55 1028 30.36 858 25.34 9.5 49.1 71 4.5 40.1
11:00 1028 30.36 858 25.34 9.6 49.4 71 4.6 40.3
11:05 1028 30.36 858 25.34 9.8 49.6 70 4.7 40.4
11:10 1028 30.36 858 25.34 10 50 71 4.9 40.9
11:15 1028 30.36 858 25.34 10.1 50.2 70 4.9 40.9
11:20 1028 30.36 858 25.34 10.2 50.4 70 5 41
11:25 1028 30.36 858 25.34 10.4 50.7 70 5.1 41.2
11:30 1028 30.36 858 25.34 10.4 50.8 68 4.9 40.8
11:35 1028 30.36 858 25.34 10.4 50.8 69 5.1 41.2
11:40 1028 30.36 858 25.34 10.2 50.3 70 4.9 40.8
11:45 1028 30.36 858 25.34 10.5 51 69 5 41.1
11:50 1028 30.36 858 25.34 10.8 51.4 67 5 40.9
11:55 1028 30.36 858 25.34 11.1 51.9 68 5.3 41.6
12:00 1028 30.36 858 25.34 11.5 52.6 64 5 41.1
12:05 1028 30.36 858 25.34 11.8 53.2 65 5.4 41.7
12:10 1028 30.36 858 25.34 11.6 53 65 5.3 41.5
12:15 1028 30.36 857 25.31 12.2 53.9 62 5.2 41.3
12:20 1028 30.36 857 25.31 12.4 54.4 61 5.3 41.5
12:25 1028 30.36 857 25.31 13.2 55.8 59 5.6 42
12:30 1028 30.36 857 25.31 13.1 55.6 57 4.9 40.9
12:35 1028 30.36 857 25.31 13.7 56.6 56 5.1 41.2
12:40 1028 30.36 857 25.31 14.6 58.3 52 5 41
12:45 1028 30.36 857 25.31 14.1 57.4 55 5.3 41.5
12:50 1028 30.36 857 25.31 14.7 58.5 52 5 41
12:55 1028 30.36 857 25.31 14.8 58.6 52 5 41
13:00 1028 30.36 857 25.31 15.2 59.3 49 4.6 40.3
13:05 1028 30.36 857 25.31 15.5 59.9 48 4.6 40.3
13:10 1028 30.36 857 25.31 15.5 59.9 48 4.6 40.3
13:15 1028 30.36 857 25.31 15.5 59.8 50 5.1 41.1
13:20 1028 30.36 857 25.31 14.9 58.9 51 5.1 41.1
13:25 1028 30.36 857 25.31 14.9 58.9 50 4.7 40.5
13:30 1027 30.33 857 25.31 15.7 60.2 47 4.6 40.3
13:35 1027 30.33 857 25.31 16 60.8 48 5.1 41.1
13:40 1027 30.33 857 25.31 15.8 60.4 47 4.6 40.3
13:45 1027 30.33 857 25.31 16.1 61 46 4.5 40.1
13:50 1027 30.33 857 25.31 16.4 61.6 46 4.9 40.8
13:55 1027 30.33 856 25.28 16.9 62.4 43 4.4 39.8
14:00 1027 30.33 856 25.28 16.9 62.4 44 4.7 40.4
14:05 1027 30.33 856 25.28 16.3 61.3 46 4.8 40.7
14:10 1027 30.33 856 25.28 15.9 60.6 47 4.8 40.6
14:15 1027 30.33 856 25.28 16.1 61 46 4.6 40.2
14:20 1027 30.33 856 25.28 16.7 62.1 43 4.3 39.8
14:25 1027 30.33 856 25.28 16.9 62.4 45 4.9 40.9
14:30 1027 30.33 856 25.28 17.2 63 43 4.6 40.2
14:35 1027 30.33 856 25.28 17.2 63 43 4.7 40.5
14:40 1027 30.33 856 25.28 17.2 62.9 43 4.8 40.6
14:45 1027 30.33 856 25.28 16.5 61.7 46 4.8 40.7
14:50 1027 30.33 856 25.28 16.6 61.8 45 4.7 40.4
14:55 1027 30.33 856 25.28 17 62.6 45 5 41
15:00 1027 30.33 856 25.28 17.4 63.4 42 4.5 40.1
15:05 1027 30.33 856 25.28 17.3 63.1 44 4.9 40.8
15:10 1027 30.33 856 25.28 17.7 63.8 42 4.8 40.6
15:15 1027 30.33 856 25.28 17.5 63.6 43 4.9 40.9
15:20 1027 30.33 856 25.28 17.6 63.8 42 4.6 40.2
15:25 1026 30.3 856 25.28 18.1 64.6 41 4.8 40.6
15:30 1026 30.3 856 25.28 17.2 62.9 45 5.2 41.4
15:35 1026 30.3 856 25.28 17.6 63.7 42 4.6 40.3
15:40 1026 30.3 856 25.28 17.8 64.1 41 4.7 40.4
15:45 1026 30.3 856 25.28 18.1 64.5 41 4.7 40.4
15:50 1026 30.3 855 25.25 17.9 64.3 42 5 40.9
15:55 1026 30.3 855 25.25 18.1 64.6 41 4.6 40.4
16:00 1026 30.3 855 25.25 18.4 65 39 4.5 40.1
16:05 1026 30.3 855 25.25 18.4 65 40 4.5 40.2
16:10 1026 30.3 855 25.25 18.2 64.8 42 5.1 41.2
16:15 1026 30.3 855 25.25 18.1 64.6 41 4.6 40.3
16:20 1026 30.3 855 25.25 18.4 65 39 4.4 39.9
16:25 1026 30.3 855 25.25 18.4 65.2 40 4.9 40.8
16:30 1026 30.3 855 25.25 18.3 64.9 40 4.5 40.2
16:35 1026 30.3 855 25.25 18.5 65.4 40 4.6 40.4
16:40 1026 30.3 855 25.25 18.4 65.2 40 4.7 40.5
16:45 1026 30.3 855 25.25 17.4 63.3 44 5.1 41.1
16:50 1026 30.3 855 25.25 17.5 63.5 42 4.5 40.1
16:55 1026 30.3 855 25.25 17.9 64.2 42 4.8 40.6
17:00 1026 30.3 855 25.25 17.8 64.1 41 4.4 39.9
17:05 1026 30.3 855 25.25 18.1 64.6 40 4.5 40.1
17:10 1026 30.3 855 25.25 18.3 64.9 39 4 39.3
17:15 1026 30.3 855 25.25 18.4 65 38 4 39.3
17:20 1026 30.3 855 25.25 18.4 65.1 38 4 39.2
17:25 1026 30.3 855 25.25 18.4 65.2 38 4.1 39.4
17:30 1026 30.3 855 25.25 18.3 65 38 3.9 39.1
17:35 1026 30.3 855 25.25 18.2 64.7 38 3.9 39.1
17:40 1025 30.27 855 25.25 18 64.5 39 4 39.1
17:45 1025 30.27 855 25.25 18.2 64.7 39 4.1 39.4
17:50 1025 30.27 855 25.25 18.4 65.1 38 3.9 39
17:55 1025 30.27 855 25.25 18.3 65 39 4.4 39.9
18:00 1025 30.27 855 25.25 17.6 63.7 41 4.4 39.9
18:05 1025 30.27 855 25.25 17.5 63.6 41 4.1 39.4
18:10 1025 30.27 855 25.25 17.7 63.8 40 4.1 39.4
18:15 1025 30.27 854 25.22 17.5 63.5 42 4.5 40
18:20 1025 30.27 854 25.22 17.1 62.8 41 4 39.3
18:25 1025 30.27 854 25.22 17 62.7 41 3.9 39
18:30 1025 30.27 854 25.22 17.1 62.8 41 3.9 39
18:35 1025 30.27 854 25.22 16.8 62.2 42 4 39.3
18:40 1025 30.27 854 25.22 16.4 61.4 44 4.3 39.7
18:45 1025 30.27 854 25.22 16 60.8 44 3.9 39
18:50 1025 30.27 854 25.22 16.1 60.9 45 4.2 39.6
18:55 1025 30.27 854 25.22 16 60.9 46 4.5 40.1
19:00 1025 30.27 854 25.22 15.8 60.4 47 4.6 40.3
19:05 1025 30.27 854 25.22 15.4 59.8 49 4.9 40.8
19:10 1025 30.27 854 25.22 15.3 59.5 49 4.6 40.3
19:15 1025 30.27 854 25.22 15 59 50 4.7 40.4
19:20 1025 30.27 854 25.22 14.8 58.7 49 4.3 39.7
19:25 1025 30.27 854 25.22 14.7 58.5 50 4.4 39.9
19:30 1025 30.27 854 25.22 14.6 58.2 50 4.4 39.9
19:35 1025 30.27 854 25.22 14.2 57.6 58 6.2 43.1
19:40 1025 30.27 854 25.22 13.5 56.2 61 6.2 43.2
19:45 1025 30.27 854 25.22 12.9 55.3 63 6.2 43.1
19:50 1025 30.27 854 25.22 12.7 54.9 63 6 42.9
19:55 1025 30.27 854 25.22 12.2 53.9 67 6.3 43.4
20:00 1025 30.27 854 25.22 11.7 53.1 67 5.8 42.4
20:05 1025 30.27 854 25.22 11.6 52.8 65 5.3 41.5
20:10 1025 30.27 854 25.22 11.5 52.7 64 5 41.1
20:15 1025 30.27 854 25.22 11.4 52.5 65 5 41
20:20 1025 30.27 854 25.22 11 51.9 69 5.6 42.1
20:25 1025 30.27 854 25.22 10.5 50.9 70 5.3 41.6
20:30 1025 30.27 854 25.22 10.2 50.4 70 4.9 40.9
20:35 1025 30.27 854 25.22 10.1 50.1 71 5.1 41.1
20:40 1025 30.27 854 25.22 9.8 49.7 70 4.7 40.5
20:45 1025 30.27 854 25.22 10 49.9 69 4.6 40.3
20:50 1025 30.27 854 25.22 10 50 68 4.4 39.9
20:55 1025 30.27 854 25.22 10.2 50.3 68 4.5 40
21:00 1025 30.27 854 25.22 10.1 50.1 68 4.4 39.9
21:05 1025 30.27 854 25.22 10.1 50.2 66 4.1 39.4
21:10 1025 30.27 854 25.22 10.2 50.4 66 4.1 39.4
21:15 1025 30.27 854 25.22 10.1 50.1 66 4.1 39.4
21:20 1025 30.27 854 25.22 9.9 49.8 67 4 39.2
21:25 1025 30.27 854 25.22 9.8 49.7 67 4 39.1
21:30 1025 30.27 854 25.22 9.8 49.7 67 4 39.1
21:35 1025 30.27 854 25.22 9.7 49.5 67 4 39.2
21:40 1025 30.27 854 25.22 9.7 49.4 67 3.8 38.9
21:45 1025 30.27 854 25.22 9.7 49.5 66 3.8 38.8
21:50 1025 30.27 854 25.22 9.7 49.4 67 3.8 38.8
21:55 1025 30.27 854 25.22 9.6 49.3 66 3.7 38.6
22:00 1025 30.27 854 25.22 9.8 49.7 65 3.7 38.6
22:05 1024 30.24 854 25.22 9.9 49.8 65 3.7 38.7
22:10 1024 30.24 854 25.22 10 50 64 3.4 38.2
22:15 1024 30.24 854 25.22 10.4 50.7 62 3.5 38.3
22:20 1024 30.24 854 25.22 10.5 50.8 63 3.7 38.6
22:25 1024 30.24 854 25.22 10.3 50.6 62 3.5 38.3
22:30 1024 30.24 854 25.22 10.3 50.6 63 3.7 38.6
22:35 1024 30.24 854 25.22 10.2 50.3 64 3.6 38.5
22:40 1024 30.24 854 25.22 10.3 50.5 62 3.3 38
22:45 1024 30.24 854 25.22 10.3 50.5 63 3.6 38.5
22:50 1024 30.24 854 25.22 9.8 49.6 66 3.8 38.8
22:55 1024 30.24 853 25.19 9.3 48.7 67 3.6 38.4
23:00 1024 30.24 853 25.19 9 48.3 68 3.6 38.4
23:05 1024 30.24 853 25.19 9 48.1 68 3.5 38.3
23:10 1024 30.24 853 25.19 8.8 47.8 69 3.5 38.2
23:15 1024 30.24 853 25.19 8.8 47.8 69 3.4 38.1
23:20 1024 30.24 853 25.19 8.8 47.8 69 3.4 38
23:25 1024 30.24 853 25.19 8.9 47.9 69 3.4 38.2
23:30 1024 30.24 853 25.19 9 48.2 67 3.2 37.8
23:35 1024 30.24 853 25.19 9.2 48.6 66 3.3 37.9
23:40 1024 30.24 853 25.19 9.2 48.6 67 3.4 38
23:45 1024 30.24 853 25.19 9.2 48.5 67 3.5 38.3
23:50 1024 30.24 853 25.19 9.1 48.3 67 3.4 38
23:55 1024 30.24 853 25.19 8.8 47.8 69 3.5 38.2
24:00 1024 30.24 853 25.19 8.5 47.3 70 3.4 38